| time (UTC) | temp C | wind direction | speed KPH | gust KPH | rain 1hr cm | rain 24hr cm | rain mn cm | humidity % | barometer mb |
| 20260510163802 | 9 | 2 | 11.3 | 20.9 | 0.00 | 0.00 | 0.00 | 64 | 1018.5 |
| 20260510163302 | 9 | 345 | 14.5 | 22.5 | 0.00 | 0.00 | 0.00 | 62 | 1018.5 |
| 20260510162802 | 9 | 356 | 16.1 | 27.4 | 0.00 | 0.00 | 0.00 | 61 | 1018.6 |
| 20260510162305 | 9 | 346 | 11.3 | 24.1 | 0.00 | 0.00 | 0.00 | 64 | 1018.6 |
| 20260510161802 | 9 | 339 | 16.1 | 27.4 | 0.00 | 0.00 | 0.00 | 64 | 1018.7 |
| 20260510161303 | 9 | 348 | 12.9 | 20.9 | 0.00 | 0.00 | 0.00 | 66 | 1018.7 |
| 20260510160803 | 10 | 340 | 9.7 | 20.9 | 0.00 | 0.00 | 0.00 | 65 | 1018.8 |
| 20260510160302 | 10 | 342 | 14.5 | 22.5 | 0.00 | 0.00 | 0.00 | 66 | 1018.9 |
| 20260510155305 | 10 | 342 | 16.1 | 27.4 | 0.00 | 0.00 | 0.00 | 66 | 1019.2 |
| 20260510154802 | 10 | 358 | 11.3 | 20.9 | 0.00 | 0.00 | 0.00 | 66 | 1019.2 |
| 20260510154301 | 10 | 348 | 16.1 | 24.1 | 0.00 | 0.00 | 0.00 | 67 | 1019.2 |
| 20260510153802 | 10 | 350 | 11.3 | 24.1 | 0.00 | 0.00 | 0.00 | 68 | 1019.2 |
| 20260510153302 | 10 | 351 | 12.9 | 24.1 | 0.00 | 0.00 | 0.00 | 68 | 1019.3 |
| 20260510152802 | 10 | 345 | 11.3 | 20.9 | 0.00 | 0.00 | 0.00 | 68 | 1019.3 |
| 20260510152306 | 10 | 341 | 14.5 | 25.7 | 0.00 | 0.00 | 0.00 | 68 | 1019.3 |
| 20260510151802 | 10 | 333 | 11.3 | 25.7 | 0.00 | 0.00 | 0.00 | 67 | 1019.2 |
| 20260510151302 | 10 | 2 | 11.3 | 22.5 | 0.00 | 0.00 | 0.00 | 67 | 1019.2 |
| 20260510150302 | 10 | 357 | 12.9 | 29.0 | 0.00 | 0.00 | 0.00 | 68 | 1019.5 |
| 20260510145802 | 10 | 10 | 11.3 | 25.7 | 0.00 | 0.00 | 0.00 | 67 | 1019.6 |
| 20260510145305 | 10 | 16 | 12.9 | 24.1 | 0.00 | 0.00 | 0.00 | 67 | 1019.7 |
| 20260510144303 | 10 | 358 | 14.5 | 27.4 | 0.00 | 0.00 | 0.00 | 67 | 1019.5 |
| 20260510143802 | 10 | 5 | 14.5 | 24.1 | 0.00 | 0.00 | 0.00 | 68 | 1019.6 |
| 20260510143302 | 10 | 355 | 17.7 | 27.4 | 0.00 | 0.00 | 0.00 | 67 | 1019.9 |
| 20260510142802 | 10 | 334 | 17.7 | 27.4 | 0.00 | 0.00 | 0.00 | 68 | 1019.8 |
| 20260510142305 | 10 | 347 | 11.3 | 27.4 | 0.00 | 0.00 | 0.00 | 70 | 1020.0 |
| 20260510141804 | 10 | 0 | 19.3 | 29.0 | 0.00 | 0.00 | 0.00 | 69 | 1019.8 |
| 20260510141302 | 10 | 344 | 11.3 | 25.7 | 0.00 | 0.00 | 0.00 | 71 | 1019.9 |
| 20260510140802 | 10 | 358 | 17.7 | 29.0 | 0.00 | 0.00 | 0.00 | 69 | 1020.1 |
| 20260510140302 | 10 | 6 | 11.3 | 27.4 | 0.00 | 0.00 | 0.00 | 71 | 1020.1 |
| 20260510135803 | 10 | 341 | 11.3 | 22.5 | 0.00 | 0.00 | 0.00 | 72 | 1020.1 |
| 20260510135305 | 10 | 349 | 19.3 | 32.2 | 0.00 | 0.00 | 0.00 | 71 | 1020.0 |
| 20260510134302 | 10 | 0 | 14.5 | 32.2 | 0.00 | 0.00 | 0.00 | 71 | 1020.0 |
| 20260510133304 | 10 | 351 | 14.5 | 27.4 | 0.00 | 0.00 | 0.00 | 72 | 1020.1 |
| 20260510132803 | 10 | 340 | 14.5 | 24.1 | 0.00 | 0.00 | 0.00 | 70 | 1020.2 |
| 20260510131802 | 10 | 8 | 16.1 | 29.0 | 0.00 | 0.00 | 0.00 | 71 | 1020.4 |
| 20260510131302 | 10 | 347 | 16.1 | 25.7 | 0.00 | 0.00 | 0.00 | 72 | 1020.4 |
| 20260510130802 | 10 | 5 | 16.1 | 27.4 | 0.00 | 0.00 | 0.00 | 70 | 1020.4 |
| 20260510130302 | 10 | 356 | 17.7 | 32.2 | 0.00 | 0.00 | 0.00 | 72 | 1020.4 |
| 20260510125802 | 10 | 353 | 12.9 | 27.4 | 0.00 | 0.00 | 0.00 | 71 | 1020.3 |
| 20260510125302 | 10 | 2 | 17.7 | 29.0 | 0.00 | 0.00 | 0.00 | 72 | 1020.5 |
| 20260510124802 | 10 | 340 | 16.1 | 25.7 | 0.00 | 0.00 | 0.00 | 72 | 1020.5 |
| 20260510124302 | 10 | 337 | 14.5 | 32.2 | 0.00 | 0.00 | 0.00 | 74 | 1020.6 |
| 20260510123302 | 10 | 331 | 14.5 | 24.1 | 0.00 | 0.00 | 0.00 | 73 | 1020.8 |
| 20260510122802 | 10 | 349 | 16.1 | 27.4 | 0.00 | 0.00 | 0.00 | 73 | 1020.9 |
| 20260510122306 | 10 | 347 | 20.9 | 32.2 | 0.00 | 0.00 | 0.00 | 73 | 1020.7 |
| 20260510121303 | 10 | 353 | 11.3 | 27.4 | 0.00 | 0.00 | 0.00 | 73 | 1021.0 |
| 20260510120802 | 10 | 346 | 17.7 | 27.4 | 0.00 | 0.00 | 0.00 | 74 | 1020.7 |
| 20260510120302 | 10 | 359 | 12.9 | 24.1 | 0.00 | 0.00 | 0.00 | 72 | 1020.9 |
| 20260510115802 | 10 | 352 | 16.1 | 29.0 | 0.00 | 0.00 | 0.00 | 71 | 1020.8 |
| 20260510115305 | 10 | 344 | 14.5 | 32.2 | 0.00 | 0.00 | 0.00 | 72 | 1021.0 |
| 20260510114802 | 10 | 7 | 17.7 | 29.0 | 0.00 | 0.00 | 0.00 | 70 | 1021.1 |
| 20260510114302 | 11 | 355 | 11.3 | 24.1 | 0.00 | 0.00 | 0.00 | 72 | 1021.1 |
| 20260510113302 | 10 | 0 | 14.5 | 27.4 | 0.00 | 0.00 | 0.00 | 72 | 1021.1 |
| 20260510112802 | 10 | 330 | 16.1 | 32.2 | 0.00 | 0.00 | 0.00 | 72 | 1021.2 |
| 20260510112305 | 10 | 2 | 17.7 | 32.2 | 0.00 | 0.00 | 0.00 | 70 | 1021.1 |
| 20260510111802 | 10 | 357 | 19.3 | 29.0 | 0.00 | 0.00 | 0.00 | 71 | 1021.2 |
| 20260510111303 | 10 | 349 | 17.7 | 29.0 | 0.00 | 0.00 | 0.00 | 72 | 1021.1 |
| 20260510110802 | 10 | 351 | 16.1 | 29.0 | 0.00 | 0.00 | 0.00 | 75 | 1021.1 |
| 20260510110303 | 10 | 339 | 19.3 | 33.8 | 0.00 | 0.00 | 0.00 | 75 | 1021.3 |
| 20260510105306 | 10 | 346 | 19.3 | 32.2 | 0.00 | 0.00 | 0.00 | 73 | 1021.2 |
| 20260510104802 | 10 | 342 | 14.5 | 25.7 | 0.00 | 0.00 | 0.00 | 76 | 1021.3 |
| 20260510104303 | 10 | 356 | 16.1 | 29.0 | 0.00 | 0.00 | 0.00 | 74 | 1021.3 |
| 20260510103802 | 10 | 8 | 20.9 | 29.0 | 0.00 | 0.00 | 0.00 | 75 | 1021.4 |
| 20260510103302 | 10 | 336 | 12.9 | 32.2 | 0.00 | 0.00 | 0.00 | 76 | 1021.4 |
| 20260510102802 | 10 | 357 | 16.1 | 32.2 | 0.00 | 0.00 | 0.00 | 76 | 1021.5 |
| 20260510102305 | 10 | 355 | 11.3 | 24.1 | 0.00 | 0.00 | 0.00 | 77 | 1021.5 |
| 20260510101803 | 10 | 0 | 9.7 | 25.7 | 0.00 | 0.00 | 0.00 | 77 | 1021.5 |
| 20260510101302 | 10 | 345 | 16.1 | 33.8 | 0.00 | 0.00 | 0.00 | 76 | 1021.6 |
| 20260510100802 | 10 | 345 | 19.3 | 32.2 | 0.00 | 0.00 | 0.00 | 76 | 1021.6 |
| 20260510100302 | 10 | 339 | 17.7 | 32.2 | 0.00 | 0.00 | 0.00 | 76 | 1021.5 |
| 20260510095803 | 10 | 9 | 19.3 | 32.2 | 0.00 | 0.00 | 0.00 | 76 | 1021.5 |
| 20260510095305 | 10 | 347 | 16.1 | 29.0 | 0.00 | 0.00 | 0.00 | 75 | 1021.6 |
| 20260510094302 | 10 | 345 | 14.5 | 33.8 | 0.00 | 0.00 | 0.00 | 75 | 1021.7 |
| 20260510092306 | 10 | 343 | 11.3 | 22.5 | 0.00 | 0.00 | 0.00 | 77 | 1021.9 |
| 20260510091803 | 10 | 358 | 19.3 | 32.2 | 0.00 | 0.00 | 0.00 | 77 | 1021.8 |
| 20260510091303 | 10 | 3 | 11.3 | 25.7 | 0.00 | 0.00 | 0.00 | 78 | 1021.8 |
| 20260510090802 | 10 | 353 | 14.5 | 24.1 | 0.00 | 0.00 | 0.00 | 78 | 1021.8 |
| 20260510090302 | 10 | 341 | 11.3 | 25.7 | 0.00 | 0.00 | 0.00 | 77 | 1021.7 |
| 20260510085802 | 10 | 3 | 16.1 | 25.7 | 0.00 | 0.00 | 0.00 | 78 | 1021.7 |
| 20260510085306 | 10 | 344 | 14.5 | 25.7 | 0.00 | 0.00 | 0.00 | 78 | 1021.6 |
| 20260510084803 | 10 | 8 | 16.1 | 24.1 | 0.00 | 0.00 | 0.00 | 78 | 1021.6 |
| 20260510084302 | 10 | 351 | 12.9 | 27.4 | 0.00 | 0.00 | 0.00 | 79 | 1021.7 |
| 20260510083802 | 10 | 13 | 14.5 | 29.0 | 0.00 | 0.00 | 0.00 | 78 | 1021.8 |
| 20260510083302 | 10 | 344 | 11.3 | 25.7 | 0.00 | 0.00 | 0.00 | 78 | 1021.7 |
| 20260510081802 | 10 | 2 | 16.1 | 25.7 | 0.00 | 0.00 | 0.00 | 80 | 1021.7 |
| 20260510081304 | 10 | 341 | 14.5 | 29.0 | 0.00 | 0.00 | 0.00 | 81 | 1021.6 |
| 20260510080802 | 9 | 357 | 19.3 | 32.2 | 0.00 | 0.00 | 0.00 | 81 | 1021.6 |
| 20260510080304 | 9 | 7 | 12.9 | 25.7 | 0.00 | 0.00 | 0.00 | 82 | 1021.7 |
| 20260510075803 | 9 | 345 | 11.3 | 25.7 | 0.00 | 0.00 | 0.00 | 83 | 1021.6 |
| 20260510075305 | 9 | 346 | 12.9 | 29.0 | 0.00 | 0.00 | 0.00 | 82 | 1021.6 |
| 20260510074802 | 9 | 348 | 11.3 | 27.4 | 0.00 | 0.00 | 0.00 | 81 | 1021.7 |
| 20260510074302 | 9 | 356 | 14.5 | 24.1 | 0.00 | 0.00 | 0.00 | 80 | 1021.6 |
| 20260510073803 | 9 | 353 | 16.1 | 27.4 | 0.00 | 0.00 | 0.00 | 80 | 1021.7 |
| 20260510072802 | 9 | 354 | 9.7 | 20.9 | 0.00 | 0.00 | 0.00 | 80 | 1021.6 |
| 20260510072305 | 9 | 355 | 14.5 | 32.2 | 0.00 | 0.00 | 0.00 | 80 | 1021.5 |
| 20260510071802 | 9 | 358 | 14.5 | 27.4 | 0.00 | 0.00 | 0.00 | 80 | 1021.5 |
| 20260510071302 | 9 | 353 | 11.3 | 24.1 | 0.00 | 0.00 | 0.00 | 79 | 1021.4 |
| 20260510070802 | 9 | 349 | 14.5 | 27.4 | 0.00 | 0.00 | 0.00 | 79 | 1021.3 |
| 20260510070302 | 9 | 10 | 20.9 | 32.2 | 0.00 | 0.00 | 0.00 | 80 | 1021.3 |
| 20260510065803 | 9 | 355 | 16.1 | 24.1 | 0.00 | 0.00 | 0.00 | 80 | 1021.2 |
| 20260510065306 | 9 | 4 | 11.3 | 27.4 | 0.00 | 0.00 | 0.00 | 81 | 1021.2 |
| 20260510064803 | 9 | 356 | 14.5 | 27.4 | 0.00 | 0.00 | 0.00 | 81 | 1021.2 |
| 20260510064303 | 9 | 356 | 16.1 | 32.2 | 0.00 | 0.00 | 0.00 | 81 | 1021.2 |
| 20260510063302 | 9 | 356 | 17.7 | 32.2 | 0.00 | 0.00 | 0.00 | 81 | 1021.1 |
| 20260510062802 | 9 | 4 | 20.9 | 32.2 | 0.00 | 0.00 | 0.00 | 82 | 1021.1 |
| 20260510062306 | 9 | 352 | 19.3 | 32.2 | 0.00 | 0.00 | 0.00 | 83 | 1021.1 |
| 20260510061802 | 9 | 0 | 20.9 | 33.8 | 0.00 | 0.00 | 0.00 | 84 | 1021.1 |
| 20260510061302 | 9 | 347 | 16.1 | 25.7 | 0.00 | 0.00 | 0.00 | 85 | 1021.0 |
| 20260510060802 | 9 | 4 | 16.1 | 29.0 | 0.00 | 0.00 | 0.00 | 85 | 1021.1 |
| 20260510060303 | 9 | 3 | 17.7 | 32.2 | 0.00 | 0.00 | 0.00 | 86 | 1021.1 |
| 20260510055802 | 9 | 353 | 11.3 | 27.4 | 0.00 | 0.00 | 0.00 | 86 | 1021.0 |
| 20260510055306 | 9 | 1 | 9.7 | 25.7 | 0.00 | 0.00 | 0.00 | 87 | 1021.0 |
| 20260510054803 | 9 | 354 | 16.1 | 29.0 | 0.00 | 0.00 | 0.00 | 87 | 1021.0 |
| 20260510053803 | 9 | 355 | 16.1 | 32.2 | 0.00 | 0.00 | 0.00 | 87 | 1021.1 |
| 20260510053303 | 9 | 340 | 11.3 | 27.4 | 0.00 | 0.00 | 0.00 | 87 | 1021.1 |
| 20260510052803 | 9 | 341 | 14.5 | 29.0 | 0.00 | 0.00 | 0.00 | 87 | 1021.1 |
| 20260510052306 | 9 | 344 | 11.3 | 25.7 | 0.00 | 0.00 | 0.00 | 88 | 1021.2 |
| 20260510051803 | 9 | 337 | 14.5 | 27.4 | 0.00 | 0.00 | 0.00 | 88 | 1021.2 |
| 20260510051302 | 9 | 343 | 17.7 | 29.0 | 0.00 | 0.00 | 0.00 | 88 | 1021.1 |
| 20260510050804 | 9 | 328 | 14.5 | 27.4 | 0.00 | 0.00 | 0.00 | 88 | 1021.1 |
| 20260510050304 | 9 | 344 | 14.5 | 32.2 | 0.00 | 0.00 | 0.00 | 88 | 1021.2 |
| 20260510045802 | 9 | 342 | 12.9 | 24.1 | 0.00 | 0.00 | 0.00 | 88 | 1021.2 |
| 20260510045306 | 9 | 340 | 12.9 | 29.0 | 0.00 | 0.00 | 0.00 | 88 | 1021.1 |
| 20260510044803 | 9 | 358 | 16.1 | 29.0 | 0.00 | 0.00 | 0.00 | 88 | 1021.1 |
| 20260510044304 | 9 | 339 | 14.5 | 32.2 | 0.00 | 0.00 | 0.00 | 88 | 1021.0 |
| 20260510043802 | 9 | 341 | 16.1 | 29.0 | 0.00 | 0.00 | 0.00 | 88 | 1021.0 |
| 20260510043302 | 9 | 335 | 11.3 | 22.5 | 0.00 | 0.00 | 0.00 | 88 | 1021.0 |
| 20260510041803 | 10 | 331 | 11.3 | 27.4 | 0.00 | 0.00 | 0.00 | 88 | 1021.0 |
| 20260510040803 | 9 | 342 | 9.7 | 20.9 | 0.00 | 0.00 | 0.00 | 88 | 1021.0 |
| 20260510034802 | 10 | 343 | 11.3 | 19.3 | 0.00 | 0.00 | 0.00 | 88 | 1021.2 |
| 20260510034302 | 10 | 359 | 9.7 | 19.3 | 0.00 | 0.00 | 0.00 | 88 | 1021.2 |
| 20260510033802 | 10 | 348 | 12.9 | 27.4 | 0.00 | 0.00 | 0.00 | 88 | 1021.2 |
| 20260510033303 | 10 | 332 | 14.5 | 32.2 | 0.00 | 0.00 | 0.00 | 88 | 1021.2 |
| 20260510032804 | 10 | 340 | 14.5 | 24.1 | 0.00 | 0.00 | 0.00 | 88 | 1021.2 |
| 20260510031303 | 10 | 352 | 11.3 | 25.7 | 0.00 | 0.00 | 0.00 | 89 | 1021.3 |
| 20260510030804 | 10 | 341 | 14.5 | 27.4 | 0.00 | 0.00 | 0.00 | 89 | 1021.4 |
| 20260510030302 | 10 | 331 | 11.3 | 19.3 | 0.00 | 0.00 | 0.00 | 89 | 1021.5 |
| 20260510025802 | 10 | 339 | 11.3 | 22.5 | 0.00 | 0.00 | 0.00 | 89 | 1021.4 |
| 20260510025306 | 10 | 345 | 9.7 | 19.3 | 0.00 | 0.00 | 0.00 | 89 | 1021.5 |
| 20260510024805 | 10 | 302 | 8.0 | 19.3 | 0.00 | 0.00 | 0.00 | 89 | 1021.5 |
| 20260510024303 | 10 | 343 | 9.7 | 19.3 | 0.00 | 0.00 | 0.00 | 89 | 1021.6 |
| 20260510023803 | 10 | 353 | 9.7 | 20.9 | 0.00 | 0.00 | 0.00 | 90 | 1021.5 |
| 20260510021802 | 10 | 354 | 11.3 | 19.3 | 0.00 | 0.00 | 0.00 | 90 | 1021.5 |
| 20260510021303 | 10 | 341 | 9.7 | 20.9 | 0.00 | 0.00 | 0.00 | 90 | 1021.5 |
| 20260510020803 | 10 | 350 | 8.0 | 19.3 | 0.00 | 0.00 | 0.00 | 90 | 1021.5 |
| 20260510020303 | 10 | 349 | 11.3 | 20.9 | 0.00 | 0.00 | 0.00 | 90 | 1021.5 |
| 20260510015306 | 10 | 1 | 12.9 | 20.9 | 0.00 | 0.00 | 0.00 | 90 | 1021.6 |
| 20260510014802 | 10 | 3 | 11.3 | 22.5 | 0.00 | 0.00 | 0.00 | 90 | 1021.5 |
| 20260510014303 | 10 | 14 | 9.7 | 29.0 | 0.00 | 0.00 | 0.00 | 90 | 1021.6 |
| 20260510013803 | 10 | 344 | 6.4 | 20.9 | 0.00 | 0.00 | 0.00 | 90 | 1021.6 |
| 20260510013303 | 10 | 346 | 11.3 | 22.5 | 0.00 | 0.00 | 0.00 | 90 | 1021.6 |
| 20260510012803 | 10 | 352 | 9.7 | 19.3 | 0.00 | 0.00 | 0.00 | 90 | 1021.5 |
| 20260510012306 | 10 | 349 | 11.3 | 19.3 | 0.00 | 0.00 | 0.00 | 90 | 1021.5 |
| 20260510011802 | 10 | 336 | 9.7 | 19.3 | 0.00 | 0.00 | 0.00 | 90 | 1021.6 |
| 20260510010802 | 10 | 341 | 11.3 | 20.9 | 0.00 | 0.00 | 0.00 | 89 | 1021.5 |
| 20260510010303 | 10 | 342 | 9.7 | 20.9 | 0.00 | 0.00 | 0.00 | 90 | 1021.5 |
| 20260510005802 | 10 | 346 | 8.0 | 25.7 | 0.00 | 0.00 | 0.00 | 90 | 1021.5 |
| 20260510005306 | 10 | 331 | 9.7 | 22.5 | 0.00 | 0.00 | 0.00 | 90 | 1021.4 |
| 20260510004803 | 10 | 338 | 8.0 | 22.5 | 0.00 | 0.00 | 0.00 | 89 | 1021.5 |
| 20260510004303 | 10 | 344 | 9.7 | 20.9 | 0.00 | 0.00 | 0.00 | 89 | 1021.6 |
| 20260510003802 | 10 | 3 | 8.0 | 19.3 | 0.00 | 0.00 | 0.00 | 89 | 1021.5 |
| 20260510002803 | 10 | 343 | 9.7 | 19.3 | 0.00 | 0.00 | 0.00 | 89 | 1021.6 |
| 20260510002306 | 10 | 331 | 9.7 | 16.1 | 0.00 | 0.00 | 0.00 | 89 | 1021.7 |
| 20260510001803 | 10 | 350 | 9.7 | 20.9 | 0.00 | 0.00 | 0.00 | 89 | 1021.7 |
| 20260510001303 | 10 | 338 | 9.7 | 20.9 | 0.00 | 0.00 | 0.00 | 89 | 1021.9 |
| 20260510000804 | 10 | 345 | 8.0 | 22.5 | 0.00 | 0.00 | 0.00 | 89 | 1021.9 |
| 20260510000304 | 10 | 352 | 9.7 | 20.9 | 0.00 | 0.00 | 0.00 | 90 | 1021.9 |
| 20260509235803 | 10 | 353 | 8.0 | 19.3 | 0.00 | 0.00 | 0.00 | 90 | 1021.9 |
| 20260509235306 | 10 | 346 | 11.3 | 24.1 | 0.00 | 0.00 | 0.00 | 90 | 1021.9 |
| 20260509234803 | 10 | 332 | 9.7 | 24.1 | 0.00 | 0.00 | 0.00 | 90 | 1022.0 |
| 20260509234302 | 10 | 346 | 9.7 | 19.3 | 0.00 | 0.00 | 0.00 | 90 | 1021.9 |
| 20260509233303 | 10 | 0 | 6.4 | 14.5 | 0.00 | 0.00 | 0.00 | 90 | 1021.8 |
| 20260509232804 | 10 | 336 | 4.8 | 19.3 | 0.00 | 0.00 | 0.00 | 90 | 1021.7 |
| 20260509232306 | 10 | 333 | 4.8 | 14.5 | 0.00 | 0.00 | 0.00 | 90 | 1021.7 |
| 20260509231803 | 10 | 297 | 8.0 | 16.1 | 0.00 | 0.00 | 0.00 | 90 | 1021.7 |
| 20260509230803 | 10 | 0 | 6.4 | 12.9 | 0.00 | 0.00 | 0.00 | 90 | 1021.6 |
| 20260509230303 | 10 | 3 | 8.0 | 16.1 | 0.00 | 0.00 | 0.00 | 90 | 1021.6 |
| 20260509225802 | 10 | 14 | 4.8 | 11.3 | 0.00 | 0.00 | 0.00 | 90 | 1021.6 |
| 20260509225305 | 10 | 4 | 3.2 | 11.3 | 0.00 | 0.00 | 0.00 | 90 | 1021.5 |
| 20260509224803 | 10 | 332 | 6.4 | 16.1 | 0.00 | 0.00 | 0.00 | 90 | 1021.4 |
| 20260509224304 | 10 | 359 | 6.4 | 22.5 | 0.00 | 0.00 | 0.00 | 90 | 1021.4 |
| 20260509223803 | 10 | 4 | 8.0 | 14.5 | 0.00 | 0.00 | 0.00 | 90 | 1021.3 |
| 20260509223303 | 10 | 10 | 8.0 | 19.3 | 0.00 | 0.00 | 0.00 | 90 | 1021.4 |
| 20260509222804 | 10 | 0 | 4.8 | 14.5 | 0.00 | 0.00 | 0.00 | 90 | 1021.5 |
| 20260509222306 | 10 | 4 | 6.4 | 12.9 | 0.00 | 0.00 | 0.00 | 90 | 1021.5 |
| 20260509221303 | 10 | 348 | 4.8 | 19.3 | 0.00 | 0.00 | 0.00 | 90 | 1021.4 |
| 20260509220803 | 10 | 338 | 6.4 | 16.1 | 0.00 | 0.00 | 0.00 | 90 | 1021.4 |
| 20260509215803 | 10 | 5 | 8.0 | 19.3 | 0.00 | 0.00 | 0.00 | 90 | 1021.2 |
| 20260509214803 | 10 | 338 | 4.8 | 9.7 | 0.00 | 0.00 | 0.00 | 90 | 1021.4 |
| 20260509214302 | 10 | 358 | 8.0 | 14.5 | 0.00 | 0.00 | 0.00 | 91 | 1021.4 |
| 20260509213803 | 10 | 4 | 8.0 | 14.5 | 0.00 | 0.00 | 0.00 | 90 | 1021.5 |
| 20260509213303 | 10 | 355 | 8.0 | 11.3 | 0.00 | 0.00 | 0.00 | 90 | 1021.5 |
| 20260509212802 | 10 | 350 | 4.8 | 16.1 | 0.00 | 0.00 | 0.00 | 90 | 1021.5 |
| 20260509211802 | 10 | 351 | 8.0 | 19.3 | 0.00 | 0.00 | 0.00 | 90 | 1021.4 |
| 20260509211302 | 10 | 347 | 8.0 | 19.3 | 0.00 | 0.00 | 0.00 | 90 | 1021.4 |
| 20260509210803 | 10 | 8 | 6.4 | 16.1 | 0.00 | 0.00 | 0.00 | 90 | 1021.4 |
| 20260509210303 | 10 | 325 | 9.7 | 16.1 | 0.00 | 0.00 | 0.00 | 89 | 1021.4 |
| 20260509205803 | 10 | 354 | 8.0 | 19.3 | 0.00 | 0.00 | 0.00 | 89 | 1021.4 |
| 20260509205306 | 10 | 353 | 8.0 | 19.3 | 0.00 | 0.00 | 0.00 | 89 | 1021.4 |
| 20260509204803 | 10 | 339 | 9.7 | 19.3 | 0.00 | 0.00 | 0.00 | 88 | 1021.3 |
| 20260509204302 | 10 | 340 | 4.8 | 14.5 | 0.00 | 0.00 | 0.00 | 87 | 1021.2 |
| 20260509203803 | 10 | 335 | 9.7 | 19.3 | 0.00 | 0.00 | 0.00 | 87 | 1021.4 |
| 20260509203303 | 10 | 329 | 8.0 | 12.9 | 0.00 | 0.00 | 0.00 | 86 | 1021.4 |
| 20260509202803 | 10 | 315 | 6.4 | 11.3 | 0.00 | 0.00 | 0.00 | 85 | 1021.5 |
| 20260509201803 | 10 | 319 | 3.2 | 11.3 | 0.00 | 0.00 | 0.00 | 85 | 1021.5 |
| 20260509201303 | 10 | 344 | 4.8 | 11.3 | 0.00 | 0.00 | 0.00 | 85 | 1021.4 |
| 20260509200803 | 10 | 339 | 4.8 | 12.9 | 0.00 | 0.00 | 0.00 | 85 | 1021.3 |
| 20260509200302 | 10 | 343 | 4.8 | 12.9 | 0.00 | 0.00 | 0.00 | 85 | 1021.1 |
| 20260509195803 | 10 | 344 | 4.8 | 11.3 | 0.00 | 0.00 | 0.00 | 85 | 1021.1 |
| 20260509194803 | 10 | 332 | 4.8 | 9.7 | 0.00 | 0.00 | 0.00 | 86 | 1021.2 |
| 20260509194302 | 11 | 326 | 3.2 | 9.7 | 0.00 | 0.00 | 0.00 | 86 | 1021.2 |
| 20260509193303 | 11 | 347 | 4.8 | 11.3 | 0.00 | 0.00 | 0.00 | 86 | 1021.1 |
| 20260509192803 | 11 | 357 | 3.2 | 9.7 | 0.00 | 0.00 | 0.00 | 86 | 1020.9 |
| 20260509192306 | 11 | 336 | 6.4 | 16.1 | 0.00 | 0.00 | 0.00 | 86 | 1020.9 |
| 20260509191803 | 11 | 352 | 8.0 | 14.5 | 0.00 | 0.00 | 0.00 | 86 | 1020.9 |
| 20260509191303 | 11 | 9 | 4.8 | 14.5 | 0.00 | 0.00 | 0.00 | 86 | 1021.1 |
| 20260509190803 | 11 | 348 | 4.8 | 12.9 | 0.00 | 0.00 | 0.00 | 86 | 1021.0 |
| 20260509190303 | 11 | 347 | 8.0 | 19.3 | 0.00 | 0.00 | 0.00 | 86 | 1020.8 |
| 20260509185804 | 11 | 10 | 8.0 | 16.1 | 0.00 | 0.00 | 0.00 | 85 | 1020.8 |
| 20260509185306 | 11 | 351 | 8.0 | 12.9 | 0.00 | 0.00 | 0.00 | 85 | 1020.9 |
| 20260509184802 | 11 | 9 | 11.3 | 16.1 | 0.00 | 0.00 | 0.00 | 85 | 1020.9 |
| 20260509184304 | 12 | 1 | 9.7 | 14.5 | 0.00 | 0.00 | 0.00 | 85 | 1021.0 |
| 20260509183806 | 12 | 335 | 8.0 | 12.9 | 0.00 | 0.00 | 0.00 | 84 | 1021.0 |
| 20260509183304 | 12 | 18 | 8.0 | 11.3 | 0.00 | 0.00 | 0.00 | 84 | 1020.9 |
| 20260509182806 | 12 | 28 | 8.0 | 16.1 | 0.00 | 0.00 | 0.00 | 84 | 1020.8 |
| 20260509182306 | 12 | 24 | 3.2 | 11.3 | 0.00 | 0.00 | 0.00 | 83 | 1020.8 |
| 20260509181802 | 12 | 6 | 4.8 | 14.5 | 0.00 | 0.00 | 0.00 | 83 | 1020.9 |
| 20260509181303 | 12 | 21 | 6.4 | 14.5 | 0.00 | 0.00 | 0.00 | 82 | 1020.8 |
| 20260509180803 | 12 | 13 | 8.0 | 14.5 | 0.00 | 0.00 | 0.00 | 81 | 1020.6 |
| 20260509180303 | 12 | 6 | 9.7 | 12.9 | 0.00 | 0.00 | 0.00 | 81 | 1020.6 |
| 20260509175804 | 12 | 19 | 6.4 | 11.3 | 0.00 | 0.00 | 0.00 | 79 | 1020.6 |
| 20260509174302 | 12 | 35 | 3.2 | 11.3 | 0.00 | 0.00 | 0.00 | 79 | 1020.5 |
| 20260509173803 | 12 | 359 | 4.8 | 14.5 | 0.00 | 0.00 | 0.00 | 79 | 1020.4 |
| 20260509173302 | 12 | 54 | 4.8 | 11.3 | 0.00 | 0.00 | 0.00 | 79 | 1020.3 |
| 20260509172803 | 12 | 44 | 3.2 | 12.9 | 0.00 | 0.00 | 0.00 | 79 | 1020.4 |
| 20260509172306 | 12 | 29 | 4.8 | 12.9 | 0.00 | 0.00 | 0.00 | 79 | 1020.4 |
| 20260509171305 | 12 | 18 | 3.2 | 4.8 | 0.00 | 0.00 | 0.00 | 78 | 1020.1 |
| 20260509170305 | 12 | 22 | 3.2 | 8.0 | 0.00 | 0.00 | 0.00 | 77 | 1020.4 |
| 20260509165306 | 13 | 347 | 4.8 | 9.7 | 0.00 | 0.00 | 0.00 | 76 | 1020.4 |
| 20260509164803 | 13 | 348 | 6.4 | 11.3 | 0.00 | 0.00 | 0.00 | 75 | 1020.5 |